Terminal Aerodrome Forecast
Issued by NWS Pittsburgh, PA

Current Version | Previous Version | Text Only | Print | Product List | Glossary Off
Versions: 1 2 3 4 5 6 7 8 9 10 11 12 13 14 15 16 17 18 19 20 21 22 23 24 25 26 27

000
FTUS41 KPBZ 261515 AAA
TAFPIT
TAF AMD
KPIT 261515Z 2615/2718 13014G19KT P6SM FEW130 BKN200
     FM262000 14012G18KT 6SM -SHRA BKN050
     FM262100 16012G18KT P6SM BKN035
     FM262300 18010G18KT 6SM -SHRA BR OVC015
     FM270100 18005KT P6SM VCSH OVC015
     FM270400 18005KT P6SM VCSH OVC015=

USA.gov is the U.S. government's official web portal to all federal, state and local government web resources and services.